sensor_id;sensor_type;location;lat;lon;timestamp;temperature;humidity
53643;DHT22;39546;45.534;12.048;2023-07-24T00:01:47;28.20;81.80
53643;DHT22;39546;45.534;12.048;2023-07-24T00:07:49;28.10;81.90
53643;DHT22;39546;45.534;12.048;2023-07-24T00:13:51;28.10;81.70
53643;DHT22;39546;45.534;12.048;2023-07-24T00:19:53;28.10;81.90
53643;DHT22;39546;45.534;12.048;2023-07-24T00:25:56;28.10;81.80
53643;DHT22;39546;45.534;12.048;2023-07-24T00:31:58;28.10;81.60
53643;DHT22;39546;45.534;12.048;2023-07-24T00:38:01;28.10;81.40
53643;DHT22;39546;45.534;12.048;2023-07-24T00:44:03;28.00;81.30
53643;DHT22;39546;45.534;12.048;2023-07-24T00:50:06;28.00;81.10
53643;DHT22;39546;45.534;12.048;2023-07-24T00:56:10;27.90;81.20
53643;DHT22;39546;45.534;12.048;2023-07-24T01:02:13;27.80;81.20
53643;DHT22;39546;45.534;12.048;2023-07-24T01:08:15;27.80;81.50
53643;DHT22;39546;45.534;12.048;2023-07-24T01:14:24;27.80;82.00
53643;DHT22;39546;45.534;12.048;2023-07-24T01:20:29;27.80;82.50
53643;DHT22;39546;45.534;12.048;2023-07-24T01:26:33;27.70;82.50
53643;DHT22;39546;45.534;12.048;2023-07-24T01:32:37;27.80;82.30
53643;DHT22;39546;45.534;12.048;2023-07-24T01:38:40;27.70;82.50
53643;DHT22;39546;45.534;12.048;2023-07-24T01:44:54;27.70;82.80
53643;DHT22;39546;45.534;12.048;2023-07-24T01:50:56;27.70;82.70
53643;DHT22;39546;45.534;12.048;2023-07-24T01:57:00;27.70;82.80
53643;DHT22;39546;45.534;12.048;2023-07-24T02:03:02;27.60;82.70
53643;DHT22;39546;45.534;12.048;2023-07-24T02:09:05;27.70;82.80
53643;DHT22;39546;45.534;12.048;2023-07-24T02:15:07;27.60;83.20
53643;DHT22;39546;45.534;12.048;2023-07-24T02:21:10;27.60;83.30
53643;DHT22;39546;45.534;12.048;2023-07-24T02:27:23;27.50;83.20
53643;DHT22;39546;45.534;12.048;2023-07-24T02:33:26;27.50;83.40
53643;DHT22;39546;45.534;12.048;2023-07-24T02:39:29;27.50;83.40
53643;DHT22;39546;45.534;12.048;2023-07-24T02:45:37;27.40;83.10
53643;DHT22;39546;45.534;12.048;2023-07-24T02:51:42;27.40;82.90
53643;DHT22;39546;45.534;12.048;2023-07-24T02:57:47;27.40;83.30
53643;DHT22;39546;45.534;12.048;2023-07-24T03:03:53;27.30;83.30
53643;DHT22;39546;45.534;12.048;2023-07-24T03:09:56;27.30;83.40
53643;DHT22;39546;45.534;12.048;2023-07-24T03:15:59;27.30;83.60
53643;DHT22;39546;45.534;12.048;2023-07-24T03:22:01;27.20;83.80
53643;DHT22;39546;45.534;12.048;2023-07-24T03:28:12;27.30;83.90
53643;DHT22;39546;45.534;12.048;2023-07-24T03:34:14;27.20;83.80
53643;DHT22;39546;45.534;12.048;2023-07-24T03:40:18;27.10;83.90
53643;DHT22;39546;45.534;12.048;2023-07-24T03:46:22;27.00;84.10
53643;DHT22;39546;45.534;12.048;2023-07-24T03:52:26;26.90;84.20
53643;DHT22;39546;45.534;12.048;2023-07-24T03:58:29;26.90;84.30
53643;DHT22;39546;45.534;12.048;2023-07-24T04:04:47;26.80;84.70
53643;DHT22;39546;45.534;12.048;2023-07-24T04:10:55;26.80;84.80
53643;DHT22;39546;45.534;12.048;2023-07-24T04:17:00;26.80;85.00
53643;DHT22;39546;45.534;12.048;2023-07-24T04:23:04;26.80;84.80
53643;DHT22;39546;45.534;12.048;2023-07-24T04:29:12;26.90;84.70
53643;DHT22;39546;45.534;12.048;2023-07-24T04:35:20;26.90;84.50
53643;DHT22;39546;45.534;12.048;2023-07-24T04:41:24;26.90;84.70
53643;DHT22;39546;45.534;12.048;2023-07-24T04:47:28;27.00;84.50
53643;DHT22;39546;45.534;12.048;2023-07-24T04:53:37;27.00;84.70
53643;DHT22;39546;45.534;12.048;2023-07-24T04:59:40;26.90;84.90
53643;DHT22;39546;45.534;12.048;2023-07-24T05:05:48;27.00;84.70
53643;DHT22;39546;45.534;12.048;2023-07-24T05:12:02;27.00;84.80
53643;DHT22;39546;45.534;12.048;2023-07-24T05:18:09;27.00;84.90
53643;DHT22;39546;45.534;12.048;2023-07-24T05:24:26;27.10;84.80
53643;DHT22;39546;45.534;12.048;2023-07-24T05:30:33;27.00;85.00
53643;DHT22;39546;45.534;12.048;2023-07-24T05:36:43;26.80;85.20
53643;DHT22;39546;45.534;12.048;2023-07-24T05:43:04;26.80;85.30
53643;DHT22;39546;45.534;12.048;2023-07-24T05:49:10;27.00;85.10
53643;DHT22;39546;45.534;12.048;2023-07-24T05:55:25;27.00;85.00
53643;DHT22;39546;45.534;12.048;2023-07-24T06:01:41;27.10;85.30
53643;DHT22;39546;45.534;12.048;2023-07-24T06:08:07;27.20;85.40
53643;DHT22;39546;45.534;12.048;2023-07-24T06:14:21;27.20;85.30
53643;DHT22;39546;45.534;12.048;2023-07-24T06:20:35;27.30;84.90
53643;DHT22;39546;45.534;12.048;2023-07-24T06:26:54;27.30;84.60
53643;DHT22;39546;45.534;12.048;2023-07-24T06:33:14;27.40;84.40
53643;DHT22;39546;45.534;12.048;2023-07-24T06:39:26;27.20;84.50
53643;DHT22;39546;45.534;12.048;2023-07-24T06:45:35;27.10;84.80
53643;DHT22;39546;45.534;12.048;2023-07-24T06:51:43;27.20;84.90
53643;DHT22;39546;45.534;12.048;2023-07-24T06:57:56;27.20;85.10
53643;DHT22;39546;45.534;12.048;2023-07-24T07:04:12;27.20;85.20
53643;DHT22;39546;45.534;12.048;2023-07-24T07:10:22;27.20;85.60
53643;DHT22;39546;45.534;12.048;2023-07-24T07:16:31;27.50;85.40
53643;DHT22;39546;45.534;12.048;2023-07-24T07:22:33;27.90;85.30
53643;DHT22;39546;45.534;12.048;2023-07-24T07:28:57;28.00;85.10
53643;DHT22;39546;45.534;12.048;2023-07-24T07:34:59;28.00;85.00
53643;DHT22;39546;45.534;12.048;2023-07-24T07:41:04;28.00;84.80
53643;DHT22;39546;45.534;12.048;2023-07-24T07:47:07;28.10;84.80
53643;DHT22;39546;45.534;12.048;2023-07-24T07:53:09;28.30;84.00
53643;DHT22;39546;45.534;12.048;2023-07-24T07:59:11;28.40;83.80
53643;DHT22;39546;45.534;12.048;2023-07-24T08:05:13;28.50;83.10
53643;DHT22;39546;45.534;12.048;2023-07-24T08:11:15;28.40;83.60
53643;DHT22;39546;45.534;12.048;2023-07-24T08:17:17;28.30;84.30
53643;DHT22;39546;45.534;12.048;2023-07-24T08:23:19;28.40;85.30
53643;DHT22;39546;45.534;12.048;2023-07-24T08:29:22;28.50;84.80
53643;DHT22;39546;45.534;12.048;2023-07-24T08:35:24;28.70;84.60
53643;DHT22;39546;45.534;12.048;2023-07-24T08:41:26;28.80;84.40
53643;DHT22;39546;45.534;12.048;2023-07-24T08:47:28;29.00;83.60
53643;DHT22;39546;45.534;12.048;2023-07-24T08:53:33;29.20;82.20
53643;DHT22;39546;45.534;12.048;2023-07-24T08:59:38;29.20;81.80
53643;DHT22;39546;45.534;12.048;2023-07-24T09:05:40;28.80;81.60
53643;DHT22;39546;45.534;12.048;2023-07-24T09:11:50;28.50;81.80
53643;DHT22;39546;45.534;12.048;2023-07-24T09:17:53;28.40;81.90
53643;DHT22;39546;45.534;12.048;2023-07-24T09:23:55;28.50;82.00
53643;DHT22;39546;45.534;12.048;2023-07-24T09:29:57;28.60;82.50
53643;DHT22;39546;45.534;12.048;2023-07-24T09:36:04;28.80;82.10
53643;DHT22;39546;45.534;12.048;2023-07-24T09:42:06;29.20;82.00
53643;DHT22;39546;45.534;12.048;2023-07-24T09:48:09;29.10;82.40
53643;DHT22;39546;45.534;12.048;2023-07-24T09:54:22;29.00;82.70
53643;DHT22;39546;45.534;12.048;2023-07-24T10:00:28;29.00;83.00
53643;DHT22;39546;45.534;12.048;2023-07-24T10:06:31;29.30;83.00
53643;DHT22;39546;45.534;12.048;2023-07-24T10:12:34;29.60;82.00
53643;DHT22;39546;45.534;12.048;2023-07-24T10:18:43;29.50;81.80
53643;DHT22;39546;45.534;12.048;2023-07-24T10:24:47;29.40;82.40
53643;DHT22;39546;45.534;12.048;2023-07-24T10:30:55;29.30;82.50
53643;DHT22;39546;45.534;12.048;2023-07-24T10:37:02;29.30;82.20
53643;DHT22;39546;45.534;12.048;2023-07-24T10:43:12;29.30;82.80
53643;DHT22;39546;45.534;12.048;2023-07-24T10:49:21;29.30;83.40
53643;DHT22;39546;45.534;12.048;2023-07-24T10:55:23;29.30;82.80
53643;DHT22;39546;45.534;12.048;2023-07-24T11:01:26;29.30;83.80
53643;DHT22;39546;45.534;12.048;2023-07-24T11:07:32;29.30;83.80
53643;DHT22;39546;45.534;12.048;2023-07-24T11:13:34;29.30;83.30
53643;DHT22;39546;45.534;12.048;2023-07-24T11:19:36;29.30;83.00
53643;DHT22;39546;45.534;12.048;2023-07-24T11:25:39;29.30;83.10
53643;DHT22;39546;45.534;12.048;2023-07-24T11:31:41;29.20;82.90
53643;DHT22;39546;45.534;12.048;2023-07-24T11:37:43;29.10;82.60
53643;DHT22;39546;45.534;12.048;2023-07-24T11:43:47;29.10;82.00
53643;DHT22;39546;45.534;12.048;2023-07-24T11:50:02;29.00;81.80
53643;DHT22;39546;45.534;12.048;2023-07-24T11:56:13;28.90;81.70
53643;DHT22;39546;45.534;12.048;2023-07-24T12:02:16;29.00;82.50
53643;DHT22;39546;45.534;12.048;2023-07-24T12:08:20;29.30;82.40
53643;DHT22;39546;45.534;12.048;2023-07-24T12:14:24;29.80;80.60
53643;DHT22;39546;45.534;12.048;2023-07-24T12:20:27;29.90;79.70
53643;DHT22;39546;45.534;12.048;2023-07-24T12:26:30;30.00;79.20
53643;DHT22;39546;45.534;12.048;2023-07-24T12:32:33;30.10;79.00
53643;DHT22;39546;45.534;12.048;2023-07-24T12:38:34;30.10;78.80
53643;DHT22;39546;45.534;12.048;2023-07-24T12:44:36;30.40;78.90
53643;DHT22;39546;45.534;12.048;2023-07-24T12:50:38;30.60;78.50
53643;DHT22;39546;45.534;12.048;2023-07-24T12:56:40;30.60;79.70
53643;DHT22;39546;45.534;12.048;2023-07-24T13:02:42;30.60;80.20
53643;DHT22;39546;45.534;12.048;2023-07-24T13:08:44;30.40;79.50
53643;DHT22;39546;45.534;12.048;2023-07-24T13:14:46;30.50;79.10
53643;DHT22;39546;45.534;12.048;2023-07-24T13:20:48;30.60;78.90
53643;DHT22;39546;45.534;12.048;2023-07-24T13:26:50;30.60;78.70
53643;DHT22;39546;45.534;12.048;2023-07-24T13:32:52;30.40;78.10
53643;DHT22;39546;45.534;12.048;2023-07-24T13:38:54;30.30;78.20
53643;DHT22;39546;45.534;12.048;2023-07-24T13:44:56;30.30;77.90
53643;DHT22;39546;45.534;12.048;2023-07-24T13:50:59;30.20;77.60
53643;DHT22;39546;45.534;12.048;2023-07-24T13:57:01;30.20;78.50
53643;DHT22;39546;45.534;12.048;2023-07-24T14:03:03;30.10;78.20
53643;DHT22;39546;45.534;12.048;2023-07-24T14:09:05;30.00;78.40
53643;DHT22;39546;45.534;12.048;2023-07-24T14:15:07;30.00;78.40
53643;DHT22;39546;45.534;12.048;2023-07-24T14:21:11;29.90;77.60
53643;DHT22;39546;45.534;12.048;2023-07-24T14:27:14;29.80;77.70
53643;DHT22;39546;45.534;12.048;2023-07-24T14:33:16;29.80;77.90
53643;DHT22;39546;45.534;12.048;2023-07-24T14:39:18;29.90;80.50
53643;DHT22;39546;45.534;12.048;2023-07-24T14:45:20;29.80;81.20
53643;DHT22;39546;45.534;12.048;2023-07-24T14:51:23;29.90;81.90
53643;DHT22;39546;45.534;12.048;2023-07-24T14:57:25;30.30;81.40
53643;DHT22;39546;45.534;12.048;2023-07-24T15:03:27;30.30;81.50
53643;DHT22;39546;45.534;12.048;2023-07-24T15:09:29;30.30;81.40
53643;DHT22;39546;45.534;12.048;2023-07-24T15:15:31;30.30;82.00
53643;DHT22;39546;45.534;12.048;2023-07-24T15:21:33;30.30;81.80
53643;DHT22;39546;45.534;12.048;2023-07-24T15:27:35;30.30;81.70
53643;DHT22;39546;45.534;12.048;2023-07-24T15:33:38;30.30;82.00
53643;DHT22;39546;45.534;12.048;2023-07-24T15:39:40;30.30;81.50
53643;DHT22;39546;45.534;12.048;2023-07-24T15:45:42;30.30;79.80
53643;DHT22;39546;45.534;12.048;2023-07-24T15:51:44;30.30;80.50
53643;DHT22;39546;45.534;12.048;2023-07-24T15:57:46;30.30;79.90
53643;DHT22;39546;45.534;12.048;2023-07-24T16:03:49;30.20;79.30
53643;DHT22;39546;45.534;12.048;2023-07-24T16:09:51;30.20;80.10
53643;DHT22;39546;45.534;12.048;2023-07-24T16:15:53;30.20;79.70
53643;DHT22;39546;45.534;12.048;2023-07-24T16:21:55;30.20;80.20
53643;DHT22;39546;45.534;12.048;2023-07-24T16:27:58;30.10;80.70
53643;DHT22;39546;45.534;12.048;2023-07-24T16:34:00;30.10;81.80
53643;DHT22;39546;45.534;12.048;2023-07-24T16:40:02;30.10;81.10
53643;DHT22;39546;45.534;12.048;2023-07-24T16:46:04;30.10;80.00
53643;DHT22;39546;45.534;12.048;2023-07-24T16:52:07;30.10;79.60
53643;DHT22;39546;45.534;12.048;2023-07-24T16:58:09;30.00;79.10
53643;DHT22;39546;45.534;12.048;2023-07-24T17:04:11;30.00;79.20
53643;DHT22;39546;45.534;12.048;2023-07-24T17:10:13;30.00;79.70
53643;DHT22;39546;45.534;12.048;2023-07-24T17:16:16;29.80;79.60
53643;DHT22;39546;45.534;12.048;2023-07-24T17:22:19;29.80;79.90
53643;DHT22;39546;45.534;12.048;2023-07-24T17:28:21;29.70;80.00
53643;DHT22;39546;45.534;12.048;2023-07-24T17:34:24;29.70;80.00
53643;DHT22;39546;45.534;12.048;2023-07-24T17:40:26;29.60;80.20
53643;DHT22;39546;45.534;12.048;2023-07-24T17:46:28;29.50;80.90
53643;DHT22;39546;45.534;12.048;2023-07-24T17:52:30;29.60;80.80
53643;DHT22;39546;45.534;12.048;2023-07-24T17:58:33;29.60;80.40
53643;DHT22;39546;45.534;12.048;2023-07-24T18:04:35;29.40;79.90
53643;DHT22;39546;45.534;12.048;2023-07-24T18:10:37;29.30;80.20
53643;DHT22;39546;45.534;12.048;2023-07-24T18:16:39;29.30;80.20
53643;DHT22;39546;45.534;12.048;2023-07-24T18:22:41;29.10;80.40
53643;DHT22;39546;45.534;12.048;2023-07-24T18:28:44;29.10;80.80
53643;DHT22;39546;45.534;12.048;2023-07-24T18:34:46;29.00;81.20
53643;DHT22;39546;45.534;12.048;2023-07-24T18:40:48;28.90;81.70
53643;DHT22;39546;45.534;12.048;2023-07-24T18:46:51;28.90;82.20
53643;DHT22;39546;45.534;12.048;2023-07-24T18:52:53;28.90;82.40
53643;DHT22;39546;45.534;12.048;2023-07-24T18:58:55;28.80;82.70
53643;DHT22;39546;45.534;12.048;2023-07-24T19:04:58;28.80;82.90
53643;DHT22;39546;45.534;12.048;2023-07-24T19:11:00;28.80;83.00
53643;DHT22;39546;45.534;12.048;2023-07-24T19:17:03;28.80;82.90
53643;DHT22;39546;45.534;12.048;2023-07-24T19:23:05;28.80;83.30
53643;DHT22;39546;45.534;12.048;2023-07-24T19:29:07;28.70;83.40
53643;DHT22;39546;45.534;12.048;2023-07-24T19:35:09;28.60;83.50
53643;DHT22;39546;45.534;12.048;2023-07-24T19:41:12;28.60;84.10
53643;DHT22;39546;45.534;12.048;2023-07-24T19:47:14;28.50;83.80
53643;DHT22;39546;45.534;12.048;2023-07-24T19:53:20;28.40;83.80
53643;DHT22;39546;45.534;12.048;2023-07-24T19:59:24;28.40;84.00
53643;DHT22;39546;45.534;12.048;2023-07-24T20:05:29;28.30;83.90
53643;DHT22;39546;45.534;12.048;2023-07-24T20:11:31;28.40;83.90
53643;DHT22;39546;45.534;12.048;2023-07-24T20:17:33;28.30;84.30
53643;DHT22;39546;45.534;12.048;2023-07-24T20:23:35;28.30;84.40
53643;DHT22;39546;45.534;12.048;2023-07-24T20:29:37;28.30;84.40
53643;DHT22;39546;45.534;12.048;2023-07-24T20:35:39;28.20;84.10
53643;DHT22;39546;45.534;12.048;2023-07-24T20:41:41;28.20;84.00
53643;DHT22;39546;45.534;12.048;2023-07-24T20:47:43;28.20;83.70
53643;DHT22;39546;45.534;12.048;2023-07-24T20:53:45;28.00;84.00
53643;DHT22;39546;45.534;12.048;2023-07-24T20:59:47;27.80;84.10
53643;DHT22;39546;45.534;12.048;2023-07-24T21:05:49;27.70;84.40
53643;DHT22;39546;45.534;12.048;2023-07-24T21:11:52;27.60;84.20
53643;DHT22;39546;45.534;12.048;2023-07-24T21:17:54;27.40;83.00
53643;DHT22;39546;45.534;12.048;2023-07-24T21:23:56;27.30;83.50
53643;DHT22;39546;45.534;12.048;2023-07-24T21:29:58;27.20;83.80
53643;DHT22;39546;45.534;12.048;2023-07-24T21:36:02;27.10;82.90
53643;DHT22;39546;45.534;12.048;2023-07-24T21:42:04;27.10;83.10
53643;DHT22;39546;45.534;12.048;2023-07-24T21:48:06;27.10;83.70
53643;DHT22;39546;45.534;12.048;2023-07-24T21:54:09;27.10;83.50
53643;DHT22;39546;45.534;12.048;2023-07-24T22:00:11;26.90;84.50
53643;DHT22;39546;45.534;12.048;2023-07-24T22:06:15;26.60;83.60
53643;DHT22;39546;45.534;12.048;2023-07-24T22:12:20;26.20;83.60
53643;DHT22;39546;45.534;12.048;2023-07-24T22:18:22;25.70;83.70
53643;DHT22;39546;45.534;12.048;2023-07-24T22:24:24;25.50;84.20
53643;DHT22;39546;45.534;12.048;2023-07-24T22:30:28;25.70;84.20
53643;DHT22;39546;45.534;12.048;2023-07-24T22:36:30;26.00;83.80
53643;DHT22;39546;45.534;12.048;2023-07-24T22:42:32;26.10;83.30
53643;DHT22;39546;45.534;12.048;2023-07-24T22:48:34;26.10;83.50
53643;DHT22;39546;45.534;12.048;2023-07-24T22:54:36;26.10;83.30
53643;DHT22;39546;45.534;12.048;2023-07-24T23:00:38;26.00;83.50
53643;DHT22;39546;45.534;12.048;2023-07-24T23:06:40;26.10;83.30
53643;DHT22;39546;45.534;12.048;2023-07-24T23:12:42;26.10;83.20
53643;DHT22;39546;45.534;12.048;2023-07-24T23:18:44;26.10;83.30
53643;DHT22;39546;45.534;12.048;2023-07-24T23:24:45;26.10;83.40
53643;DHT22;39546;45.534;12.048;2023-07-24T23:30:47;26.10;83.60
53643;DHT22;39546;45.534;12.048;2023-07-24T23:36:50;26.10;83.90
53643;DHT22;39546;45.534;12.048;2023-07-24T23:42:52;26.00;83.80
53643;DHT22;39546;45.534;12.048;2023-07-24T23:48:54;25.90;83.90
53643;DHT22;39546;45.534;12.048;2023-07-24T23:54:56;25.90;83.60
